sensor_id;sensor_type;location;lat;lon;timestamp;P1;durP1;ratioP1;P2;durP2;ratioP2
16579;SDS011;8402;51.466;6.806;2022-08-25T00:01:46;8.70;;;5.53;;
16579;SDS011;8402;51.466;6.806;2022-08-25T00:04:16;8.70;;;5.05;;
16579;SDS011;8402;51.466;6.806;2022-08-25T00:06:46;7.55;;;5.40;;
16579;SDS011;8402;51.466;6.806;2022-08-25T00:09:16;7.25;;;5.15;;
16579;SDS011;8402;51.466;6.806;2022-08-25T00:11:45;6.97;;;4.95;;
16579;SDS011;8402;51.466;6.806;2022-08-25T00:14:17;7.45;;;5.10;;
16579;SDS011;8402;51.466;6.806;2022-08-25T00:16:46;6.93;;;5.28;;
16579;SDS011;8402;51.466;6.806;2022-08-25T00:19:16;11.00;;;5.25;;
16579;SDS011;8402;51.466;6.806;2022-08-25T00:21:47;5.95;;;4.95;;
16579;SDS011;8402;51.466;6.806;2022-08-25T00:24:15;6.65;;;5.07;;
16579;SDS011;8402;51.466;6.806;2022-08-25T00:26:45;5.40;;;4.63;;
16579;SDS011;8402;51.466;6.806;2022-08-25T00:29:18;8.20;;;5.05;;
16579;SDS011;8402;51.466;6.806;2022-08-25T00:31:47;7.28;;;5.40;;
16579;SDS011;8402;51.466;6.806;2022-08-25T00:34:16;6.90;;;5.15;;
16579;SDS011;8402;51.466;6.806;2022-08-25T00:36:45;6.10;;;5.05;;
16579;SDS011;8402;51.466;6.806;2022-08-25T00:39:17;13.13;;;4.93;;
16579;SDS011;8402;51.466;6.806;2022-08-25T00:41:49;7.28;;;4.68;;
16579;SDS011;8402;51.466;6.806;2022-08-25T00:44:19;10.20;;;5.60;;
16579;SDS011;8402;51.466;6.806;2022-08-25T00:46:47;5.97;;;4.82;;
16579;SDS011;8402;51.466;6.806;2022-08-25T00:49:17;7.03;;;4.75;;
16579;SDS011;8402;51.466;6.806;2022-08-25T00:51:52;10.50;;;5.43;;
16579;SDS011;8402;51.466;6.806;2022-08-25T00:54:26;10.45;;;4.65;;
16579;SDS011;8402;51.466;6.806;2022-08-25T00:56:56;14.65;;;4.88;;
16579;SDS011;8402;51.466;6.806;2022-08-25T00:59:27;7.18;;;4.97;;
16579;SDS011;8402;51.466;6.806;2022-08-25T01:01:56;7.28;;;4.93;;
16579;SDS011;8402;51.466;6.806;2022-08-25T01:04:25;7.95;;;5.10;;
16579;SDS011;8402;51.466;6.806;2022-08-25T01:06:54;10.50;;;5.25;;
16579;SDS011;8402;51.466;6.806;2022-08-25T01:09:24;6.03;;;4.72;;
16579;SDS011;8402;51.466;6.806;2022-08-25T01:11:52;7.13;;;4.88;;
16579;SDS011;8402;51.466;6.806;2022-08-25T01:14:20;6.90;;;5.03;;
16579;SDS011;8402;51.466;6.806;2022-08-25T01:16:53;8.20;;;4.78;;
16579;SDS011;8402;51.466;6.806;2022-08-25T01:19:23;7.53;;;4.75;;
16579;SDS011;8402;51.466;6.806;2022-08-25T01:21:55;6.93;;;4.90;;
16579;SDS011;8402;51.466;6.806;2022-08-25T01:24:24;5.57;;;4.43;;
16579;SDS011;8402;51.466;6.806;2022-08-25T01:26:57;8.00;;;5.15;;
16579;SDS011;8402;51.466;6.806;2022-08-25T01:29:26;6.00;;;4.82;;
16579;SDS011;8402;51.466;6.806;2022-08-25T01:31:56;6.43;;;4.80;;
16579;SDS011;8402;51.466;6.806;2022-08-25T01:34:27;6.00;;;4.78;;
16579;SDS011;8402;51.466;6.806;2022-08-25T01:36:58;5.18;;;4.68;;
16579;SDS011;8402;51.466;6.806;2022-08-25T01:39:27;6.53;;;4.63;;
16579;SDS011;8402;51.466;6.806;2022-08-25T01:42:03;5.88;;;4.43;;
16579;SDS011;8402;51.466;6.806;2022-08-25T01:44:40;5.18;;;4.50;;
16579;SDS011;8402;51.466;6.806;2022-08-25T01:47:10;8.10;;;4.80;;
16579;SDS011;8402;51.466;6.806;2022-08-25T01:49:39;7.50;;;4.78;;
16579;SDS011;8402;51.466;6.806;2022-08-25T01:52:11;7.05;;;4.30;;
16579;SDS011;8402;51.466;6.806;2022-08-25T01:54:42;6.72;;;4.53;;
16579;SDS011;8402;51.466;6.806;2022-08-25T01:57:10;7.95;;;4.82;;
16579;SDS011;8402;51.466;6.806;2022-08-25T01:59:38;7.63;;;4.53;;
16579;SDS011;8402;51.466;6.806;2022-08-25T02:02:06;8.07;;;4.50;;
16579;SDS011;8402;51.466;6.806;2022-08-25T02:04:35;9.13;;;4.90;;
16579;SDS011;8402;51.466;6.806;2022-08-25T02:07:06;6.95;;;5.00;;
16579;SDS011;8402;51.466;6.806;2022-08-25T02:09:37;7.57;;;4.60;;
16579;SDS011;8402;51.466;6.806;2022-08-25T02:12:05;7.88;;;4.60;;
16579;SDS011;8402;51.466;6.806;2022-08-25T02:14:35;8.20;;;4.80;;
16579;SDS011;8402;51.466;6.806;2022-08-25T02:17:04;9.00;;;4.70;;
16579;SDS011;8402;51.466;6.806;2022-08-25T02:19:32;8.52;;;5.38;;
16579;SDS011;8402;51.466;6.806;2022-08-25T02:22:00;10.10;;;5.40;;
16579;SDS011;8402;51.466;6.806;2022-08-25T02:24:28;6.82;;;5.20;;
16579;SDS011;8402;51.466;6.806;2022-08-25T02:26:57;7.03;;;5.20;;
16579;SDS011;8402;51.466;6.806;2022-08-25T02:29:25;7.43;;;5.33;;
16579;SDS011;8402;51.466;6.806;2022-08-25T02:31:53;8.63;;;5.75;;
16579;SDS011;8402;51.466;6.806;2022-08-25T02:34:21;7.35;;;5.55;;
16579;SDS011;8402;51.466;6.806;2022-08-25T02:36:49;11.25;;;5.55;;
16579;SDS011;8402;51.466;6.806;2022-08-25T02:39:17;8.15;;;5.60;;
16579;SDS011;8402;51.466;6.806;2022-08-25T02:41:45;9.40;;;6.00;;
16579;SDS011;8402;51.466;6.806;2022-08-25T02:44:14;8.05;;;5.82;;
16579;SDS011;8402;51.466;6.806;2022-08-25T02:46:42;8.98;;;5.32;;
16579;SDS011;8402;51.466;6.806;2022-08-25T02:49:10;7.43;;;5.93;;
16579;SDS011;8402;51.466;6.806;2022-08-25T02:51:38;10.93;;;5.68;;
16579;SDS011;8402;51.466;6.806;2022-08-25T02:54:06;8.07;;;5.90;;
16579;SDS011;8402;51.466;6.806;2022-08-25T02:56:34;10.35;;;6.30;;
16579;SDS011;8402;51.466;6.806;2022-08-25T02:59:02;12.77;;;6.00;;
16579;SDS011;8402;51.466;6.806;2022-08-25T03:01:32;11.73;;;6.00;;
16579;SDS011;8402;51.466;6.806;2022-08-25T03:04:00;11.20;;;5.90;;
16579;SDS011;8402;51.466;6.806;2022-08-25T03:06:28;9.25;;;6.20;;
16579;SDS011;8402;51.466;6.806;2022-08-25T03:08:57;8.85;;;5.68;;
16579;SDS011;8402;51.466;6.806;2022-08-25T03:11:25;7.55;;;6.15;;
16579;SDS011;8402;51.466;6.806;2022-08-25T03:13:53;10.15;;;6.28;;
16579;SDS011;8402;51.466;6.806;2022-08-25T03:16:23;6.63;;;5.85;;
16579;SDS011;8402;51.466;6.806;2022-08-25T03:18:54;10.02;;;6.03;;
16579;SDS011;8402;51.466;6.806;2022-08-25T03:21:23;13.98;;;5.70;;
16579;SDS011;8402;51.466;6.806;2022-08-25T03:23:52;7.07;;;5.80;;
16579;SDS011;8402;51.466;6.806;2022-08-25T03:26:20;11.43;;;6.43;;
16579;SDS011;8402;51.466;6.806;2022-08-25T03:29:07;11.23;;;6.55;;
16579;SDS011;8402;51.466;6.806;2022-08-25T03:31:36;11.93;;;5.80;;
16579;SDS011;8402;51.466;6.806;2022-08-25T03:34:05;14.20;;;6.47;;
16579;SDS011;8402;51.466;6.806;2022-08-25T03:36:34;10.07;;;6.25;;
16579;SDS011;8402;51.466;6.806;2022-08-25T03:39:02;14.55;;;6.60;;
16579;SDS011;8402;51.466;6.806;2022-08-25T03:41:31;13.23;;;6.20;;
16579;SDS011;8402;51.466;6.806;2022-08-25T03:43:59;11.38;;;6.15;;
16579;SDS011;8402;51.466;6.806;2022-08-25T03:46:29;11.77;;;6.38;;
16579;SDS011;8402;51.466;6.806;2022-08-25T03:48:59;11.80;;;5.88;;
16579;SDS011;8402;51.466;6.806;2022-08-25T03:51:30;10.18;;;5.70;;
16579;SDS011;8402;51.466;6.806;2022-08-25T03:54:00;15.68;;;6.10;;
16579;SDS011;8402;51.466;6.806;2022-08-25T03:56:29;11.57;;;6.57;;
16579;SDS011;8402;51.466;6.806;2022-08-25T03:58:57;9.95;;;6.40;;
16579;SDS011;8402;51.466;6.806;2022-08-25T04:01:26;13.52;;;6.07;;
16579;SDS011;8402;51.466;6.806;2022-08-25T04:03:54;9.85;;;6.15;;
16579;SDS011;8402;51.466;6.806;2022-08-25T04:06:22;9.25;;;5.68;;
16579;SDS011;8402;51.466;6.806;2022-08-25T04:08:51;10.20;;;6.53;;
16579;SDS011;8402;51.466;6.806;2022-08-25T04:11:20;11.18;;;6.35;;
16579;SDS011;8402;51.466;6.806;2022-08-25T04:13:49;10.45;;;6.15;;
16579;SDS011;8402;51.466;6.806;2022-08-25T04:16:20;12.15;;;6.32;;
16579;SDS011;8402;51.466;6.806;2022-08-25T04:18:49;11.93;;;5.93;;
16579;SDS011;8402;51.466;6.806;2022-08-25T04:21:18;9.23;;;5.70;;
16579;SDS011;8402;51.466;6.806;2022-08-25T04:23:47;12.98;;;6.32;;
16579;SDS011;8402;51.466;6.806;2022-08-25T04:26:19;11.65;;;6.10;;
16579;SDS011;8402;51.466;6.806;2022-08-25T04:28:48;9.82;;;6.38;;
16579;SDS011;8402;51.466;6.806;2022-08-25T04:31:17;9.15;;;5.97;;
16579;SDS011;8402;51.466;6.806;2022-08-25T04:33:47;11.40;;;6.22;;
16579;SDS011;8402;51.466;6.806;2022-08-25T04:36:15;12.23;;;6.00;;
16579;SDS011;8402;51.466;6.806;2022-08-25T04:38:45;16.92;;;6.15;;
16579;SDS011;8402;51.466;6.806;2022-08-25T04:41:16;12.80;;;6.13;;
16579;SDS011;8402;51.466;6.806;2022-08-25T04:43:47;12.02;;;5.97;;
16579;SDS011;8402;51.466;6.806;2022-08-25T04:46:16;11.18;;;6.38;;
16579;SDS011;8402;51.466;6.806;2022-08-25T04:48:46;9.85;;;6.15;;
16579;SDS011;8402;51.466;6.806;2022-08-25T04:51:16;10.57;;;6.60;;
16579;SDS011;8402;51.466;6.806;2022-08-25T04:53:45;9.43;;;6.85;;
16579;SDS011;8402;51.466;6.806;2022-08-25T04:56:14;9.05;;;6.30;;
16579;SDS011;8402;51.466;6.806;2022-08-25T04:58:44;10.40;;;6.57;;
16579;SDS011;8402;51.466;6.806;2022-08-25T05:01:13;15.07;;;6.78;;
16579;SDS011;8402;51.466;6.806;2022-08-25T05:03:43;10.13;;;6.82;;
16579;SDS011;8402;51.466;6.806;2022-08-25T05:06:12;16.48;;;6.55;;
16579;SDS011;8402;51.466;6.806;2022-08-25T05:08:41;9.98;;;6.55;;
16579;SDS011;8402;51.466;6.806;2022-08-25T05:11:12;13.00;;;7.15;;
16579;SDS011;8402;51.466;6.806;2022-08-25T05:13:42;12.90;;;6.80;;
16579;SDS011;8402;51.466;6.806;2022-08-25T05:16:18;13.60;;;7.22;;
16579;SDS011;8402;51.466;6.806;2022-08-25T05:18:48;17.15;;;7.40;;
16579;SDS011;8402;51.466;6.806;2022-08-25T05:21:19;13.15;;;6.90;;
16579;SDS011;8402;51.466;6.806;2022-08-25T05:23:49;9.95;;;7.28;;
16579;SDS011;8402;51.466;6.806;2022-08-25T05:26:23;15.65;;;7.57;;
16579;SDS011;8402;51.466;6.806;2022-08-25T05:28:53;13.88;;;7.35;;
16579;SDS011;8402;51.466;6.806;2022-08-25T05:31:23;11.27;;;7.07;;
16579;SDS011;8402;51.466;6.806;2022-08-25T05:33:52;22.02;;;7.18;;
16579;SDS011;8402;51.466;6.806;2022-08-25T05:36:22;13.20;;;7.20;;
16579;SDS011;8402;51.466;6.806;2022-08-25T05:38:51;13.02;;;7.15;;
16579;SDS011;8402;51.466;6.806;2022-08-25T05:41:20;13.57;;;7.13;;
16579;SDS011;8402;51.466;6.806;2022-08-25T05:43:52;16.42;;;7.20;;
16579;SDS011;8402;51.466;6.806;2022-08-25T05:46:23;16.88;;;7.00;;
16579;SDS011;8402;51.466;6.806;2022-08-25T05:48:52;13.85;;;6.82;;
16579;SDS011;8402;51.466;6.806;2022-08-25T05:51:20;17.52;;;7.35;;
16579;SDS011;8402;51.466;6.806;2022-08-25T05:53:48;13.00;;;7.10;;
16579;SDS011;8402;51.466;6.806;2022-08-25T05:56:18;16.55;;;7.60;;
16579;SDS011;8402;51.466;6.806;2022-08-25T05:58:46;11.63;;;7.00;;
16579;SDS011;8402;51.466;6.806;2022-08-25T06:01:24;18.95;;;7.05;;
16579;SDS011;8402;51.466;6.806;2022-08-25T06:04:12;13.35;;;8.15;;
16579;SDS011;8402;51.466;6.806;2022-08-25T06:06:40;13.77;;;7.47;;
16579;SDS011;8402;51.466;6.806;2022-08-25T06:09:09;16.83;;;7.65;;
16579;SDS011;8402;51.466;6.806;2022-08-25T06:11:37;15.95;;;7.38;;
16579;SDS011;8402;51.466;6.806;2022-08-25T06:14:06;14.93;;;6.57;;
16579;SDS011;8402;51.466;6.806;2022-08-25T06:16:36;12.95;;;6.18;;
16579;SDS011;8402;51.466;6.806;2022-08-25T06:19:06;15.35;;;7.15;;
16579;SDS011;8402;51.466;6.806;2022-08-25T06:21:36;13.32;;;6.63;;
16579;SDS011;8402;51.466;6.806;2022-08-25T06:24:05;11.13;;;6.07;;
16579;SDS011;8402;51.466;6.806;2022-08-25T06:26:40;14.95;;;6.20;;
16579;SDS011;8402;51.466;6.806;2022-08-25T06:29:09;10.73;;;6.07;;
16579;SDS011;8402;51.466;6.806;2022-08-25T06:31:41;14.93;;;6.63;;
16579;SDS011;8402;51.466;6.806;2022-08-25T06:34:09;14.32;;;6.65;;
16579;SDS011;8402;51.466;6.806;2022-08-25T06:36:38;12.57;;;6.32;;
16579;SDS011;8402;51.466;6.806;2022-08-25T06:39:06;13.80;;;6.95;;
16579;SDS011;8402;51.466;6.806;2022-08-25T06:41:36;13.95;;;5.97;;
16579;SDS011;8402;51.466;6.806;2022-08-25T06:44:04;11.65;;;6.00;;
16579;SDS011;8402;51.466;6.806;2022-08-25T06:46:32;9.95;;;5.40;;
16579;SDS011;8402;51.466;6.806;2022-08-25T06:49:04;9.38;;;5.72;;
16579;SDS011;8402;51.466;6.806;2022-08-25T06:51:33;12.65;;;5.50;;
16579;SDS011;8402;51.466;6.806;2022-08-25T06:54:02;8.80;;;5.57;;
16579;SDS011;8402;51.466;6.806;2022-08-25T06:56:31;10.40;;;5.88;;
16579;SDS011;8402;51.466;6.806;2022-08-25T06:59:00;12.07;;;5.07;;
16579;SDS011;8402;51.466;6.806;2022-08-25T07:01:29;9.50;;;5.50;;
16579;SDS011;8402;51.466;6.806;2022-08-25T07:03:58;11.75;;;5.60;;
16579;SDS011;8402;51.466;6.806;2022-08-25T07:06:36;10.20;;;5.25;;
16579;SDS011;8402;51.466;6.806;2022-08-25T07:09:05;14.30;;;5.60;;
16579;SDS011;8402;51.466;6.806;2022-08-25T07:11:34;14.32;;;5.15;;
16579;SDS011;8402;51.466;6.806;2022-08-25T07:14:03;7.50;;;5.32;;
16579;SDS011;8402;51.466;6.806;2022-08-25T07:16:33;6.75;;;5.35;;
16579;SDS011;8402;51.466;6.806;2022-08-25T07:19:02;11.48;;;4.95;;
16579;SDS011;8402;51.466;6.806;2022-08-25T07:21:34;8.52;;;5.22;;
16579;SDS011;8402;51.466;6.806;2022-08-25T07:24:07;8.70;;;5.10;;
16579;SDS011;8402;51.466;6.806;2022-08-25T07:26:38;8.70;;;5.25;;
16579;SDS011;8402;51.466;6.806;2022-08-25T07:29:08;6.00;;;5.30;;
16579;SDS011;8402;51.466;6.806;2022-08-25T07:31:37;6.78;;;4.90;;
16579;SDS011;8402;51.466;6.806;2022-08-25T07:34:07;7.68;;;5.30;;
16579;SDS011;8402;51.466;6.806;2022-08-25T07:36:53;7.22;;;4.60;;
16579;SDS011;8402;51.466;6.806;2022-08-25T07:39:24;11.23;;;5.38;;
16579;SDS011;8402;51.466;6.806;2022-08-25T07:41:54;9.30;;;5.15;;
16579;SDS011;8402;51.466;6.806;2022-08-25T07:44:23;7.85;;;4.93;;
16579;SDS011;8402;51.466;6.806;2022-08-25T07:46:53;5.78;;;4.82;;
16579;SDS011;8402;51.466;6.806;2022-08-25T07:49:23;6.75;;;4.93;;
16579;SDS011;8402;51.466;6.806;2022-08-25T07:52:05;7.68;;;4.88;;
16579;SDS011;8402;51.466;6.806;2022-08-25T07:54:35;6.63;;;4.85;;
16579;SDS011;8402;51.466;6.806;2022-08-25T07:57:04;7.68;;;4.80;;
16579;SDS011;8402;51.466;6.806;2022-08-25T07:59:33;7.07;;;4.63;;
16579;SDS011;8402;51.466;6.806;2022-08-25T08:02:06;6.82;;;5.13;;
16579;SDS011;8402;51.466;6.806;2022-08-25T08:04:44;6.90;;;5.03;;
16579;SDS011;8402;51.466;6.806;2022-08-25T08:07:15;7.07;;;4.70;;
16579;SDS011;8402;51.466;6.806;2022-08-25T08:09:46;7.50;;;5.43;;
16579;SDS011;8402;51.466;6.806;2022-08-25T08:12:25;10.35;;;5.50;;
16579;SDS011;8402;51.466;6.806;2022-08-25T08:14:54;7.63;;;4.75;;
16579;SDS011;8402;51.466;6.806;2022-08-25T08:17:22;7.07;;;5.28;;
16579;SDS011;8402;51.466;6.806;2022-08-25T08:19:50;8.00;;;5.50;;
16579;SDS011;8402;51.466;6.806;2022-08-25T08:22:18;11.25;;;5.53;;
16579;SDS011;8402;51.466;6.806;2022-08-25T08:24:48;8.52;;;5.15;;
16579;SDS011;8402;51.466;6.806;2022-08-25T08:27:21;7.70;;;4.80;;
16579;SDS011;8402;51.466;6.806;2022-08-25T08:29:50;10.07;;;5.25;;
16579;SDS011;8402;51.466;6.806;2022-08-25T08:32:19;7.93;;;4.90;;
16579;SDS011;8402;51.466;6.806;2022-08-25T08:34:56;9.02;;;5.30;;
16579;SDS011;8402;51.466;6.806;2022-08-25T08:37:24;7.20;;;4.95;;
16579;SDS011;8402;51.466;6.806;2022-08-25T08:39:54;7.28;;;5.07;;
16579;SDS011;8402;51.466;6.806;2022-08-25T08:42:27;8.95;;;5.07;;
16579;SDS011;8402;51.466;6.806;2022-08-25T08:45:19;10.00;;;5.80;;
16579;SDS011;8402;51.466;6.806;2022-08-25T08:47:57;9.48;;;5.05;;
16579;SDS011;8402;51.466;6.806;2022-08-25T08:50:50;7.20;;;5.03;;
16579;SDS011;8402;51.466;6.806;2022-08-25T08:53:39;7.55;;;5.18;;
16579;SDS011;8402;51.466;6.806;2022-08-25T08:56:13;9.15;;;5.57;;
16579;SDS011;8402;51.466;6.806;2022-08-25T08:58:45;8.25;;;5.03;;
16579;SDS011;8402;51.466;6.806;2022-08-25T09:01:18;6.20;;;4.53;;
16579;SDS011;8402;51.466;6.806;2022-08-25T09:03:53;8.30;;;4.90;;
16579;SDS011;8402;51.466;6.806;2022-08-25T09:06:27;12.75;;;5.22;;
16579;SDS011;8402;51.466;6.806;2022-08-25T09:09:01;8.93;;;5.05;;
16579;SDS011;8402;51.466;6.806;2022-08-25T09:11:37;7.80;;;5.07;;
16579;SDS011;8402;51.466;6.806;2022-08-25T09:14:20;6.72;;;4.45;;
16579;SDS011;8402;51.466;6.806;2022-08-25T09:17:00;6.07;;;5.20;;
16579;SDS011;8402;51.466;6.806;2022-08-25T09:19:37;7.47;;;4.40;;
16579;SDS011;8402;51.466;6.806;2022-08-25T09:22:27;8.88;;;4.75;;
16579;SDS011;8402;51.466;6.806;2022-08-25T09:25:07;8.43;;;4.90;;
16579;SDS011;8402;51.466;6.806;2022-08-25T09:27:59;6.78;;;5.40;;
16579;SDS011;8402;51.466;6.806;2022-08-25T09:30:38;5.95;;;5.13;;
16579;SDS011;8402;51.466;6.806;2022-08-25T09:33:13;5.57;;;4.50;;
16579;SDS011;8402;51.466;6.806;2022-08-25T09:35:47;6.63;;;4.90;;
16579;SDS011;8402;51.466;6.806;2022-08-25T09:38:19;9.05;;;5.10;;
16579;SDS011;8402;51.466;6.806;2022-08-25T09:40:48;11.73;;;5.15;;
16579;SDS011;8402;51.466;6.806;2022-08-25T09:43:20;5.78;;;4.82;;
16579;SDS011;8402;51.466;6.806;2022-08-25T09:45:54;5.53;;;4.80;;
16579;SDS011;8402;51.466;6.806;2022-08-25T09:48:26;7.03;;;4.80;;
16579;SDS011;8402;51.466;6.806;2022-08-25T09:51:10;5.75;;;4.75;;
16579;SDS011;8402;51.466;6.806;2022-08-25T09:53:44;4.80;;;4.38;;
16579;SDS011;8402;51.466;6.806;2022-08-25T09:56:18;5.28;;;4.50;;
16579;SDS011;8402;51.466;6.806;2022-08-25T09:58:48;5.15;;;4.13;;
16579;SDS011;8402;51.466;6.806;2022-08-25T10:01:18;12.75;;;9.55;;
16579;SDS011;8402;51.466;6.806;2022-08-25T10:03:55;4.97;;;4.10;;
16579;SDS011;8402;51.466;6.806;2022-08-25T10:06:26;6.22;;;4.30;;
16579;SDS011;8402;51.466;6.806;2022-08-25T10:08:57;5.25;;;4.25;;
16579;SDS011;8402;51.466;6.806;2022-08-25T10:11:32;4.80;;;4.22;;
16579;SDS011;8402;51.466;6.806;2022-08-25T10:14:20;5.78;;;4.50;;
16579;SDS011;8402;51.466;6.806;2022-08-25T10:17:10;5.88;;;4.78;;
16579;SDS011;8402;51.466;6.806;2022-08-25T10:19:41;5.30;;;4.70;;
16579;SDS011;8402;51.466;6.806;2022-08-25T10:22:10;8.75;;;6.05;;
16579;SDS011;8402;51.466;6.806;2022-08-25T10:24:46;6.15;;;5.55;;
16579;SDS011;8402;51.466;6.806;2022-08-25T10:27:18;5.40;;;4.65;;
16579;SDS011;8402;51.466;6.806;2022-08-25T10:33:00;4.80;;;4.30;;
16579;SDS011;8402;51.466;6.806;2022-08-25T10:35:40;6.65;;;4.78;;
16579;SDS011;8402;51.466;6.806;2022-08-25T10:38:22;7.47;;;4.53;;
16579;SDS011;8402;51.466;6.806;2022-08-25T10:41:03;5.20;;;4.60;;
16579;SDS011;8402;51.466;6.806;2022-08-25T10:43:47;5.53;;;4.43;;
16579;SDS011;8402;51.466;6.806;2022-08-25T10:46:27;6.63;;;4.75;;
16579;SDS011;8402;51.466;6.806;2022-08-25T10:49:02;7.35;;;4.65;;
16579;SDS011;8402;51.466;6.806;2022-08-25T10:51:42;5.72;;;4.32;;
16579;SDS011;8402;51.466;6.806;2022-08-25T10:54:26;6.97;;;4.47;;
16579;SDS011;8402;51.466;6.806;2022-08-25T10:57:05;5.10;;;4.53;;
16579;SDS011;8402;51.466;6.806;2022-08-25T10:59:46;6.80;;;4.80;;
16579;SDS011;8402;51.466;6.806;2022-08-25T11:02:33;5.43;;;4.45;;
16579;SDS011;8402;51.466;6.806;2022-08-25T11:05:15;6.68;;;4.70;;
16579;SDS011;8402;51.466;6.806;2022-08-25T11:07:50;5.45;;;4.80;;
16579;SDS011;8402;51.466;6.806;2022-08-25T11:10:26;5.68;;;4.65;;
16579;SDS011;8402;51.466;6.806;2022-08-25T11:13:03;6.40;;;4.90;;
16579;SDS011;8402;51.466;6.806;2022-08-25T11:15:37;5.18;;;4.68;;
16579;SDS011;8402;51.466;6.806;2022-08-25T11:18:33;5.50;;;4.53;;
16579;SDS011;8402;51.466;6.806;2022-08-25T11:21:11;4.82;;;4.43;;
16579;SDS011;8402;51.466;6.806;2022-08-25T11:23:49;5.20;;;4.70;;
16579;SDS011;8402;51.466;6.806;2022-08-25T11:26:25;6.50;;;5.47;;
16579;SDS011;8402;51.466;6.806;2022-08-25T11:29:03;4.93;;;4.43;;
16579;SDS011;8402;51.466;6.806;2022-08-25T11:31:37;4.25;;;3.85;;
16579;SDS011;8402;51.466;6.806;2022-08-25T11:34:12;4.22;;;3.90;;
16579;SDS011;8402;51.466;6.806;2022-08-25T11:36:48;4.25;;;3.85;;
16579;SDS011;8402;51.466;6.806;2022-08-25T11:39:25;6.13;;;4.50;;
16579;SDS011;8402;51.466;6.806;2022-08-25T11:42:07;5.20;;;4.40;;
16579;SDS011;8402;51.466;6.806;2022-08-25T11:44:50;5.35;;;4.40;;
16579;SDS011;8402;51.466;6.806;2022-08-25T11:47:34;4.97;;;4.22;;
16579;SDS011;8402;51.466;6.806;2022-08-25T11:50:24;4.90;;;4.45;;
16579;SDS011;8402;51.466;6.806;2022-08-25T11:52:56;5.43;;;4.35;;
16579;SDS011;8402;51.466;6.806;2022-08-25T11:55:52;9.38;;;4.70;;
16579;SDS011;8402;51.466;6.806;2022-08-25T12:04:37;4.32;;;3.80;;
16579;SDS011;8402;51.466;6.806;2022-08-25T12:07:20;4.30;;;3.90;;
16579;SDS011;8402;51.466;6.806;2022-08-25T12:13:01;5.30;;;4.20;;
16579;SDS011;8402;51.466;6.806;2022-08-25T12:15:54;4.65;;;4.25;;
16579;SDS011;8402;51.466;6.806;2022-08-25T12:18:37;5.78;;;4.45;;
16579;SDS011;8402;51.466;6.806;2022-08-25T12:21:12;9.27;;;4.35;;
16579;SDS011;8402;51.466;6.806;2022-08-25T12:23:44;4.78;;;4.30;;
16579;SDS011;8402;51.466;6.806;2022-08-25T12:26:33;5.72;;;4.50;;
16579;SDS011;8402;51.466;6.806;2022-08-25T12:29:12;4.60;;;4.20;;
16579;SDS011;8402;51.466;6.806;2022-08-25T12:31:56;6.70;;;4.10;;
16579;SDS011;8402;51.466;6.806;2022-08-25T12:34:40;4.38;;;3.97;;
16579;SDS011;8402;51.466;6.806;2022-08-25T12:37:51;5.43;;;4.30;;
16579;SDS011;8402;51.466;6.806;2022-08-25T12:40:25;5.38;;;3.63;;
16579;SDS011;8402;51.466;6.806;2022-08-25T12:43:01;6.47;;;4.38;;
16579;SDS011;8402;51.466;6.806;2022-08-25T12:45:35;4.50;;;3.80;;
16579;SDS011;8402;51.466;6.806;2022-08-25T12:51:15;4.63;;;3.42;;
16579;SDS011;8402;51.466;6.806;2022-08-25T12:53:46;4.43;;;3.75;;
16579;SDS011;8402;51.466;6.806;2022-08-25T12:56:20;4.22;;;3.80;;
16579;SDS011;8402;51.466;6.806;2022-08-25T12:58:54;5.10;;;4.00;;
16579;SDS011;8402;51.466;6.806;2022-08-25T13:01:35;4.10;;;3.80;;
16579;SDS011;8402;51.466;6.806;2022-08-25T13:04:23;4.18;;;3.70;;
16579;SDS011;8402;51.466;6.806;2022-08-25T13:07:08;4.15;;;3.45;;
16579;SDS011;8402;51.466;6.806;2022-08-25T13:10:07;4.65;;;3.78;;
16579;SDS011;8402;51.466;6.806;2022-08-25T13:12:47;4.20;;;3.90;;
16579;SDS011;8402;51.466;6.806;2022-08-25T13:15:26;5.00;;;4.00;;
16579;SDS011;8402;51.466;6.806;2022-08-25T13:18:20;3.70;;;3.40;;
16579;SDS011;8402;51.466;6.806;2022-08-25T13:20:51;4.20;;;3.80;;
16579;SDS011;8402;51.466;6.806;2022-08-25T13:23:23;5.95;;;3.55;;
16579;SDS011;8402;51.466;6.806;2022-08-25T13:25:55;4.30;;;3.90;;
16579;SDS011;8402;51.466;6.806;2022-08-25T13:28:28;4.35;;;3.95;;
16579;SDS011;8402;51.466;6.806;2022-08-25T13:30:59;4.45;;;3.75;;
16579;SDS011;8402;51.466;6.806;2022-08-25T13:33:33;4.13;;;3.70;;
16579;SDS011;8402;51.466;6.806;2022-08-25T13:36:03;4.00;;;3.50;;
16579;SDS011;8402;51.466;6.806;2022-08-25T13:38:49;4.43;;;3.50;;
16579;SDS011;8402;51.466;6.806;2022-08-25T13:41:18;5.47;;;3.40;;
16579;SDS011;8402;51.466;6.806;2022-08-25T13:43:56;3.95;;;3.60;;
16579;SDS011;8402;51.466;6.806;2022-08-25T13:46:28;4.03;;;3.72;;
16579;SDS011;8402;51.466;6.806;2022-08-25T13:49:01;4.13;;;3.83;;
16579;SDS011;8402;51.466;6.806;2022-08-25T13:51:31;4.05;;;3.50;;
16579;SDS011;8402;51.466;6.806;2022-08-25T13:54:00;4.50;;;4.10;;
16579;SDS011;8402;51.466;6.806;2022-08-25T13:56:31;4.53;;;4.13;;
16579;SDS011;8402;51.466;6.806;2022-08-25T13:59:17;4.55;;;3.88;;
16579;SDS011;8402;51.466;6.806;2022-08-25T14:01:48;4.40;;;4.00;;
16579;SDS011;8402;51.466;6.806;2022-08-25T14:04:24;4.13;;;3.80;;
16579;SDS011;8402;51.466;6.806;2022-08-25T14:07:04;4.30;;;3.80;;
16579;SDS011;8402;51.466;6.806;2022-08-25T14:09:39;8.50;;;4.32;;
16579;SDS011;8402;51.466;6.806;2022-08-25T14:12:24;4.40;;;4.00;;
16579;SDS011;8402;51.466;6.806;2022-08-25T14:15:01;5.30;;;3.90;;
16579;SDS011;8402;51.466;6.806;2022-08-25T14:17:36;4.50;;;4.10;;
16579;SDS011;8402;51.466;6.806;2022-08-25T14:20:14;4.30;;;3.92;;
16579;SDS011;8402;51.466;6.806;2022-08-25T14:22:45;5.80;;;4.32;;
16579;SDS011;8402;51.466;6.806;2022-08-25T14:25:14;4.20;;;3.80;;
16579;SDS011;8402;51.466;6.806;2022-08-25T14:27:42;6.65;;;4.30;;
16579;SDS011;8402;51.466;6.806;2022-08-25T14:30:32;4.40;;;3.92;;
16579;SDS011;8402;51.466;6.806;2022-08-25T14:33:02;4.95;;;4.28;;
16579;SDS011;8402;51.466;6.806;2022-08-25T14:35:32;4.50;;;4.10;;
16579;SDS011;8402;51.466;6.806;2022-08-25T14:38:00;5.25;;;4.15;;
16579;SDS011;8402;51.466;6.806;2022-08-25T14:40:35;4.78;;;3.92;;
16579;SDS011;8402;51.466;6.806;2022-08-25T14:43:05;5.50;;;4.25;;
16579;SDS011;8402;51.466;6.806;2022-08-25T14:45:39;4.72;;;4.07;;
16579;SDS011;8402;51.466;6.806;2022-08-25T14:48:12;6.32;;;3.75;;
16579;SDS011;8402;51.466;6.806;2022-08-25T14:50:44;4.60;;;4.10;;
16579;SDS011;8402;51.466;6.806;2022-08-25T14:53:15;4.35;;;4.00;;
16579;SDS011;8402;51.466;6.806;2022-08-25T14:55:43;4.50;;;4.05;;
16579;SDS011;8402;51.466;6.806;2022-08-25T14:58:12;5.68;;;4.00;;
16579;SDS011;8402;51.466;6.806;2022-08-25T15:00:42;5.95;;;4.00;;
16579;SDS011;8402;51.466;6.806;2022-08-25T15:03:13;7.72;;;3.97;;
16579;SDS011;8402;51.466;6.806;2022-08-25T15:05:45;4.35;;;3.95;;
16579;SDS011;8402;51.466;6.806;2022-08-25T15:08:15;6.60;;;4.10;;
16579;SDS011;8402;51.466;6.806;2022-08-25T15:11:00;7.10;;;4.10;;
16579;SDS011;8402;51.466;6.806;2022-08-25T15:13:34;5.30;;;3.92;;
16579;SDS011;8402;51.466;6.806;2022-08-25T15:16:03;4.75;;;3.67;;
16579;SDS011;8402;51.466;6.806;2022-08-25T15:18:32;6.72;;;3.80;;
16579;SDS011;8402;51.466;6.806;2022-08-25T15:21:04;4.85;;;3.92;;
16579;SDS011;8402;51.466;6.806;2022-08-25T15:23:32;5.57;;;4.15;;
16579;SDS011;8402;51.466;6.806;2022-08-25T15:26:02;6.45;;;3.70;;
16579;SDS011;8402;51.466;6.806;2022-08-25T15:28:30;4.10;;;3.80;;
16579;SDS011;8402;51.466;6.806;2022-08-25T15:30:58;4.70;;;3.67;;
16579;SDS011;8402;51.466;6.806;2022-08-25T15:33:28;4.97;;;4.28;;
16579;SDS011;8402;51.466;6.806;2022-08-25T15:35:55;4.45;;;3.72;;
16579;SDS011;8402;51.466;6.806;2022-08-25T15:38:23;6.18;;;3.95;;
16579;SDS011;8402;51.466;6.806;2022-08-25T15:40:51;4.22;;;3.83;;
16579;SDS011;8402;51.466;6.806;2022-08-25T15:43:19;7.00;;;3.95;;
16579;SDS011;8402;51.466;6.806;2022-08-25T15:45:47;8.10;;;3.72;;
16579;SDS011;8402;51.466;6.806;2022-08-25T15:48:18;10.23;;;4.57;;